Aérodrome :
LOGIN :

S'inscrire | Disclaimer

   EN    FR    IT 

 










Légende :    VFR   VFR Marginal   IFR   IFR Intensif   IFR Très Intensif
Visi : 
Plafond : 
>= 8 km
>= 3000ft
5 à 8 km
1000 à 3000 ft
1500m à 5 km
500 à 1000 ft
800 à 1500m
200 à 500 ft
< 800m
< 200 ft
Symboles :   Orages  Brouillard  Fortes neiges  Fortes précipitations  Vent > 20 kt
SIGMETs :   Divers  Orages  Givrage  Turbulence  Onde Orograph.  Cendres Volcan.






- Altitude de l'aérodrome : 1300 ft
- Code IATA : LIG


LFBL - Limoges

DERNIER METAR :
  • 070100Z AUTO 18004KT 4900 BR BKN003 OVC021 06/06 Q1020 TEMPO 0600 FG VV///

METARs EXPIRÉS :
  • 070030Z AUTO 15004KT 100V210 4400 BR BKN003 OVC007 06/06 Q1020 TEMPO 0600 FG VV///
  • 070000Z AUTO 16004KT 4100 BR OVC003 06/06 Q1020 TEMPO 0600 FG VV///
  • 062330Z AUTO 19005KT 140V240 5000 BR OVC002 06/06 Q1021 TEMPO 0600 FG VV///
  • 062300Z AUTO 21007KT 2500 BR VV/// 06/06 Q1021 TEMPO 4000 BR OVC003
  • 062230Z AUTO 20006KT 5000 BR OVC004 06/06 Q1021 NOSIG

TAF TAF LFBL
Valide du 07 à 00h jusqu'au 08 à 00h UTC


062300Z 0700/0724 19006KT 8000 BKN006
TEMPO 0700/0712 4000 -RADZ OVC003
PROB40
TEMPO 0700/0708 0600 FG VV///
TEMPO 0712/0716 BKN012
BECMG 0716/0718 4000 BR OVC003
PROB30
TEMPO 0720/0724 0600 FG VV///
ATIS : +33 5 55 48 40 37



MET'MAP, la Météo Aéronautique d'un coup d'oeil ! - Copyright ORBIFLY Décembre 2007 - Disclaimer

ORBIFLY MET'MAP TEAM :

Programmation & Développement : Alexandra Zaïnal
Sur une idée originale de : Baudouin d'Aumeries
Assistance à la programmation : Marc-Olivier Méhu
Soutien technique & logistique : Manuel Goepfert

Contact : metmap@orbifly.com




SOURCES & CREDITS :

   NOAA